createdAt,value
2017-07-17T10:06:00.076Z,2.70
2017-07-17T10:08:26.964Z,2.23
2017-07-17T10:10:53.667Z,2.10
2017-07-17T10:13:20.359Z,2.30
2017-07-17T10:15:47.044Z,2.30
2017-07-17T10:18:13.716Z,2.10
2017-07-17T10:20:40.408Z,2.40
2017-07-17T10:23:07.111Z,1.90
2017-07-17T10:25:33.781Z,1.97
2017-07-17T10:28:00.859Z,1.73
2017-07-17T10:30:27.549Z,2.20
2017-07-17T10:32:54.752Z,2.00
2017-07-17T10:35:22.036Z,2.17
2017-07-17T10:37:48.742Z,2.03
2017-07-17T10:40:15.470Z,1.93
2017-07-17T10:42:42.311Z,1.80
2017-07-17T10:45:10.934Z,1.80
2017-07-17T10:47:37.601Z,2.00
2017-07-17T10:50:04.296Z,1.67
2017-07-17T10:52:30.958Z,2.30
2017-07-17T10:55:00.749Z,1.83
2017-07-17T10:57:27.516Z,1.90
2017-07-17T10:59:54.177Z,1.97
2017-07-17T11:02:20.853Z,2.07
2017-07-17T11:04:47.553Z,1.90
2017-07-17T11:07:14.217Z,1.97
2017-07-17T11:09:40.907Z,2.07
2017-07-17T11:12:07.669Z,2.03
2017-07-17T11:14:34.541Z,2.10
2017-07-17T11:17:01.236Z,2.33
2017-07-17T11:19:27.992Z,1.90
2017-07-17T11:21:54.734Z,2.00
2017-07-17T11:24:21.392Z,1.73
2017-07-17T11:26:48.084Z,2.10
2017-07-17T11:29:14.841Z,2.00
2017-07-17T11:31:41.518Z,2.10
2017-07-17T11:34:08.477Z,1.90
2017-07-17T11:36:35.160Z,2.10
2017-07-17T11:39:01.845Z,1.70
2017-07-17T11:41:28.539Z,2.53
2017-07-17T11:43:55.304Z,1.50
2017-07-17T11:56:30.839Z,1.70
2017-07-17T11:58:57.523Z,1.40
2017-07-17T12:01:24.211Z,1.40
2017-07-17T12:03:51.213Z,1.40
2017-07-17T12:06:17.860Z,1.33
2017-07-17T12:08:44.536Z,1.60
2017-07-17T12:11:11.206Z,1.20
2017-07-17T12:13:37.853Z,1.30
2017-07-17T12:16:04.558Z,1.10
2017-07-17T12:18:31.221Z,1.20
2017-07-17T12:20:57.869Z,1.40
2017-07-17T12:23:24.561Z,1.30
2017-07-17T12:25:51.245Z,1.30
2017-07-17T12:28:17.898Z,1.13
2017-07-17T12:30:44.580Z,1.33
2017-07-17T12:33:11.260Z,1.40
2017-07-17T12:35:37.917Z,1.43
2017-07-17T12:38:04.587Z,1.40
2017-07-17T12:40:31.241Z,1.50
2017-07-17T12:42:57.919Z,2.00
2017-07-17T12:45:24.586Z,1.30
2017-07-17T12:47:51.254Z,1.50
2017-07-17T12:50:17.924Z,1.50
2017-07-17T12:52:45.777Z,1.30
2017-07-17T12:55:12.436Z,1.10
2017-07-17T12:57:39.096Z,1.30
2017-07-17T13:00:05.802Z,1.40
2017-07-17T13:02:32.458Z,1.40
2017-07-17T13:04:59.141Z,1.50
2017-07-17T13:07:25.818Z,1.23
2017-07-17T13:09:52.525Z,1.10
2017-07-17T13:12:19.176Z,1.17
2017-07-17T13:14:45.837Z,1.30
2017-07-17T13:17:12.506Z,1.30
2017-07-17T13:19:39.147Z,1.20
2017-07-17T13:22:05.792Z,1.30
2017-07-17T13:24:32.472Z,1.50
2017-07-17T13:26:59.140Z,1.20
2017-07-17T13:29:25.819Z,1.63
2017-07-17T13:31:52.727Z,1.70
2017-07-17T13:34:19.460Z,1.63
2017-07-17T13:36:47.126Z,1.60
2017-07-17T13:39:13.820Z,1.60
2017-07-17T13:41:40.494Z,2.03
2017-07-17T13:44:07.188Z,1.77
2017-07-17T13:46:33.852Z,1.70
2017-07-17T13:49:00.514Z,1.70
2017-07-17T13:51:27.282Z,1.73
2017-07-17T13:53:53.930Z,1.70
2017-07-17T13:56:21.549Z,1.60
2017-07-17T13:58:48.713Z,1.70
2017-07-17T14:01:15.444Z,1.90
2017-07-17T14:03:42.106Z,1.90
2017-07-17T14:06:08.803Z,1.73
2017-07-17T14:08:35.853Z,1.83
2017-07-17T14:11:02.513Z,1.80
2017-07-17T14:13:29.184Z,2.50
2017-07-17T14:15:56.336Z,1.97
2017-07-17T14:18:23.113Z,1.93
2017-07-17T14:20:49.905Z,1.90
2017-07-17T14:23:16.646Z,1.80
2017-07-17T14:25:43.782Z,1.70
2017-07-17T14:28:10.539Z,1.57
2017-07-17T14:30:37.198Z,2.10
2017-07-17T14:33:03.953Z,1.80
2017-07-17T14:35:30.818Z,1.77
2017-07-17T14:37:57.527Z,1.70
2017-07-17T14:40:24.621Z,1.70
2017-07-17T14:42:51.457Z,1.90
2017-07-17T14:45:18.184Z,1.90
2017-07-17T14:47:44.892Z,1.90
2017-07-17T14:50:11.611Z,1.70
2017-07-17T14:52:38.825Z,1.80
2017-07-17T14:55:06.051Z,1.70
2017-07-17T14:57:33.114Z,1.83
2017-07-17T14:59:59.819Z,1.80
2017-07-17T15:02:26.879Z,2.30
2017-07-17T15:04:53.718Z,1.90
2017-07-17T15:07:20.411Z,2.00
2017-07-17T15:09:47.112Z,2.00
2017-07-17T15:12:14.083Z,1.90
2017-07-17T15:14:40.758Z,1.80
2017-07-17T15:17:07.738Z,1.70
2017-07-17T15:19:34.438Z,1.57
2017-07-17T15:22:01.103Z,1.50
2017-07-17T15:24:28.049Z,1.77
2017-07-17T15:26:55.235Z,1.83
2017-07-17T15:29:21.943Z,1.40
2017-07-17T15:31:49.675Z,2.00
2017-07-17T15:34:16.371Z,1.83
2017-07-17T15:36:43.045Z,1.83
2017-07-17T15:39:09.811Z,1.90
2017-07-17T15:41:36.541Z,2.00
2017-07-17T15:44:04.164Z,1.80
2017-07-17T15:46:30.848Z,1.63
2017-07-17T15:48:57.876Z,1.60
2017-07-17T15:51:24.568Z,1.50
2017-07-17T15:53:51.315Z,1.90
2017-07-17T15:56:18.110Z,2.10
2017-07-17T15:58:44.835Z,1.67
2017-07-17T16:01:11.626Z,1.70
2017-07-17T16:03:38.916Z,1.70
2017-07-17T16:06:05.591Z,1.40
2017-07-17T16:08:32.745Z,1.20
2017-07-17T16:10:59.463Z,1.50
2017-07-17T16:13:26.564Z,1.30
2017-07-17T16:15:53.435Z,1.40
2017-07-17T16:18:20.091Z,1.60
2017-07-17T16:20:46.735Z,1.40
2017-07-17T16:23:13.407Z,1.53
2017-07-17T16:25:40.599Z,1.47
2017-07-17T16:28:07.611Z,1.47
2017-07-17T16:30:35.052Z,1.43
2017-07-17T16:33:02.186Z,1.17
2017-07-17T16:35:29.102Z,1.60
2017-07-17T16:37:56.182Z,1.17
2017-07-17T16:40:22.963Z,1.67
2017-07-17T16:42:49.871Z,1.40
2017-07-17T16:45:16.920Z,1.43
2017-07-17T16:47:44.631Z,1.40
2017-07-17T16:50:11.532Z,1.80
2017-07-17T16:52:38.250Z,1.30
2017-07-17T16:55:05.156Z,1.67
2017-07-17T16:57:31.809Z,1.63
2017-07-17T16:59:59.151Z,1.53
2017-07-17T17:02:26.345Z,1.50
2017-07-17T17:04:53.002Z,1.47
2017-07-17T17:07:20.109Z,1.97
2017-07-17T17:09:47.205Z,1.60
2017-07-17T17:12:13.934Z,1.40
2017-07-17T17:14:40.954Z,1.50
2017-07-17T17:17:07.800Z,1.70
2017-07-17T17:19:34.816Z,1.60
2017-07-17T17:22:01.692Z,1.90
2017-07-17T17:24:28.993Z,1.93
2017-07-17T17:26:55.654Z,1.90
2017-07-17T17:29:22.336Z,2.10
2017-07-17T17:31:49.461Z,2.10
2017-07-17T17:34:16.111Z,2.30
2017-07-17T17:36:42.795Z,2.20
2017-07-17T17:39:09.640Z,2.20
2017-07-17T17:41:36.618Z,2.33
2017-07-17T17:44:03.446Z,2.07
2017-07-17T17:46:30.534Z,2.50
2017-07-17T17:48:57.569Z,2.27
2017-07-17T17:51:24.740Z,2.40
2017-07-17T17:53:51.445Z,2.40
2017-07-17T17:56:18.101Z,2.30
2017-07-17T17:58:44.820Z,2.40
2017-07-17T18:01:11.859Z,2.23
2017-07-17T18:03:38.738Z,2.00
2017-07-17T18:06:05.436Z,2.20
2017-07-17T18:08:32.088Z,2.10
2017-07-17T18:10:58.734Z,2.33
2017-07-17T18:13:25.578Z,2.60
2017-07-17T18:15:52.282Z,2.40
2017-07-17T18:18:18.935Z,2.60
2017-07-17T18:20:46.146Z,2.60
2017-07-17T18:23:13.061Z,2.93
2017-07-17T18:25:40.348Z,2.70
2017-07-17T18:28:07.064Z,2.70
2017-07-17T18:30:33.715Z,3.00
2017-07-17T18:33:00.389Z,2.70
2017-07-17T18:35:27.811Z,2.70
2017-07-17T18:37:54.627Z,2.87
2017-07-17T18:40:21.524Z,2.87
2017-07-17T18:42:48.202Z,3.00
2017-07-17T18:45:14.852Z,2.70
2017-07-17T18:47:41.555Z,2.90
2017-07-17T18:50:13.236Z,2.60
2017-07-17T18:52:40.011Z,3.00
2017-07-17T18:55:06.660Z,3.00
2017-07-17T18:57:34.288Z,3.07
2017-07-17T19:00:00.933Z,3.03
2017-07-17T19:02:27.647Z,3.03
2017-07-17T19:04:54.485Z,2.80
2017-07-17T19:07:21.181Z,2.73
2017-07-17T19:09:47.859Z,2.57
2017-07-17T19:12:15.243Z,2.90
2017-07-17T19:14:42.026Z,3.23
2017-07-17T19:17:08.821Z,3.60
2017-07-17T19:19:35.556Z,3.93
2017-07-17T19:22:02.756Z,3.70
2017-07-17T19:24:29.691Z,3.97
2017-07-17T19:26:56.370Z,3.20
2017-07-17T19:29:23.019Z,3.17
2017-07-17T19:31:49.687Z,3.20
2017-07-17T19:34:16.567Z,2.97
2017-07-17T19:36:43.254Z,3.37
2017-07-17T19:39:09.943Z,2.87
2017-07-17T19:41:37.632Z,3.03
2017-07-17T19:44:04.653Z,3.30
2017-07-17T19:46:31.332Z,3.57
2017-07-17T19:48:57.978Z,3.20
2017-07-17T19:51:24.684Z,3.10
2017-07-17T19:53:51.369Z,3.10
2017-07-17T19:56:19.003Z,3.10
2017-07-17T19:58:45.653Z,3.63
2017-07-17T20:01:12.344Z,3.73
2017-07-17T20:03:39.004Z,3.60
2017-07-17T20:06:05.649Z,3.90
2017-07-17T20:08:32.344Z,3.37
2017-07-17T20:10:59.338Z,3.30
2017-07-17T20:13:26.075Z,3.70
2017-07-17T20:15:52.789Z,3.37
2017-07-17T20:18:19.444Z,3.87
2017-07-17T20:20:46.565Z,3.87
2017-07-17T20:23:13.277Z,3.53
2017-07-17T20:25:39.976Z,3.93
2017-07-17T20:28:06.644Z,3.77
2017-07-17T20:30:33.337Z,3.77
2017-07-17T20:33:00.015Z,3.10
2017-07-17T20:35:26.705Z,3.70
2017-07-17T20:37:53.481Z,4.07
2017-07-17T20:40:20.153Z,3.33
2017-07-17T20:42:47.025Z,3.90
2017-07-17T20:45:13.724Z,3.90
2017-07-17T20:47:40.754Z,3.70
2017-07-17T20:50:07.421Z,3.00
2017-07-17T20:52:34.215Z,3.73
2017-07-17T20:55:00.966Z,3.60
2017-07-17T20:57:27.781Z,3.63
2017-07-17T20:59:54.491Z,3.37
2017-07-17T21:02:21.144Z,3.87
2017-07-17T21:04:48.319Z,4.87
2017-07-17T21:07:15.031Z,3.70
2017-07-17T21:09:41.718Z,3.83
2017-07-17T21:12:08.505Z,3.60
2017-07-17T21:14:35.467Z,3.70
2017-07-17T21:17:02.134Z,3.50
2017-07-17T21:19:28.808Z,4.13
2017-07-17T21:21:55.475Z,4.43
2017-07-17T21:24:22.158Z,3.77
2017-07-17T21:26:49.043Z,3.70
2017-07-17T21:29:15.705Z,4.07
2017-07-17T21:31:42.404Z,4.07
2017-07-17T21:34:09.425Z,3.70
2017-07-17T21:36:36.089Z,4.30
2017-07-17T21:39:02.768Z,4.33
2017-07-17T21:41:29.532Z,4.30
2017-07-17T21:43:56.204Z,4.50
2017-07-17T21:46:22.876Z,4.33
2017-07-17T21:48:49.551Z,4.43
2017-07-17T21:51:16.199Z,4.03
2017-07-17T21:53:43.358Z,4.13
2017-07-17T21:56:10.676Z,3.83
2017-07-17T21:58:37.588Z,4.20
2017-07-17T22:01:04.356Z,5.10
2017-07-17T22:03:31.052Z,4.10
2017-07-17T22:05:57.759Z,3.73
2017-07-17T22:08:24.503Z,4.07
2017-07-17T22:10:51.172Z,3.43
2017-07-17T22:13:18.013Z,4.13
2017-07-17T22:15:44.679Z,4.03
2017-07-17T22:18:11.356Z,4.10
2017-07-17T22:20:38.000Z,4.30
2017-07-17T22:23:04.692Z,3.90
2017-07-17T22:25:31.353Z,4.10
2017-07-17T22:27:58.133Z,4.23
2017-07-17T22:30:25.387Z,4.50
2017-07-17T22:32:52.147Z,4.30
2017-07-17T22:35:19.038Z,4.87
2017-07-17T22:37:45.746Z,4.63
2017-07-17T22:40:13.477Z,5.17
2017-07-17T22:42:40.129Z,4.67
2017-07-17T22:45:06.814Z,4.37
2017-07-17T22:47:33.473Z,4.57
2017-07-17T22:50:00.258Z,4.10
2017-07-17T22:52:26.926Z,4.30
2017-07-17T22:54:53.591Z,4.40
2017-07-17T22:57:20.304Z,4.67
2017-07-17T22:59:47.151Z,5.03
2017-07-17T23:02:13.812Z,4.30
2017-07-17T23:04:40.471Z,3.50
2017-07-17T23:07:07.150Z,4.10
2017-07-17T23:09:34.069Z,4.27
2017-07-17T23:12:00.717Z,3.70
2017-07-17T23:14:27.390Z,3.87
2017-07-17T23:16:54.048Z,4.10
2017-07-17T23:19:20.700Z,4.67
2017-07-17T23:21:47.373Z,4.13
2017-07-17T23:24:14.950Z,3.80
2017-07-17T23:26:41.616Z,3.60
2017-07-17T23:29:08.296Z,3.83
2017-07-17T23:31:34.953Z,3.50
2017-07-17T23:34:01.600Z,3.80
2017-07-17T23:36:28.303Z,3.67
2017-07-17T23:38:55.023Z,3.20
2017-07-17T23:41:27.183Z,4.00
2017-07-17T23:43:53.853Z,4.00
2017-07-17T23:46:20.505Z,3.77
2017-07-17T23:48:47.154Z,4.23
2017-07-17T23:51:13.823Z,3.93
2017-07-17T23:53:40.471Z,4.07
2017-07-17T23:56:07.118Z,4.27
2017-07-17T23:58:33.796Z,3.83
